Time;durP1;ratioP1;P1;durP2;ratioP2;P2;SDS_P1;SDS_P2;PMS_P1;PMS_P2;Temp;Humidity;BMP_temperature;BMP_pressure;BME280_temperature;BME280_humidity;BME280_pressure;Samples;Min_cycle;Max_cycle;Signal;HPM_P1;HPM_P2
2024/04/18 00:00:21;;;;;;;9.75;5.70;;;;;;;4.24;84.92;99966.13;2695475;26;20078;-74
2024/04/18 00:01:35;;;;;;;7.70;5.03;;;;;;;4.24;84.89;99954.94;2701017;26;20015;-74
2024/04/18 00:02:48;;;;;;;4.40;4.00;;;;;;;4.25;84.89;99960.09;2696965;26;19996;-73
2024/04/18 00:04:01;;;;;;;6.10;4.45;;;;;;;4.24;85.29;99960.94;2683555;26;20553;-74
2024/04/18 00:05:16;;;;;;;6.05;4.95;;;;;;;4.26;84.98;99972.16;2685633;26;20012;-74
2024/04/18 00:06:30;;;;;;;9.88;5.30;;;;;;;4.23;85.16;99963.50;2684317;26;20023;-73
2024/04/18 00:07:43;;;;;;;11.68;5.30;;;;;;;4.23;84.92;99960.94;2708746;21;20068;-73
2024/04/18 00:08:56;;;;;;;8.30;4.25;;;;;;;4.24;84.99;99962.69;2687726;26;20079;-73
2024/04/18 00:10:09;;;;;;;5.57;4.93;;;;;;;4.24;85.46;99966.13;2672331;26;20006;-73
2024/04/18 00:11:22;;;;;;;7.30;4.80;;;;;;;4.24;84.95;99965.25;2687119;26;20017;-73
2024/04/18 00:12:36;;;;;;;6.22;5.45;;;;;;;4.23;85.55;99956.63;2688751;26;20256;-73
2024/04/18 00:13:49;;;;;;;8.10;5.97;;;;;;;4.25;85.59;99960.09;2688073;26;20005;-73
2024/04/18 00:15:02;;;;;;;6.68;5.63;;;;;;;4.27;85.14;99960.97;2687868;26;20473;-73
2024/04/18 00:16:15;;;;;;;7.32;4.15;;;;;;;4.27;85.46;99957.53;2688373;26;20507;-73
2024/04/18 00:17:29;;;;;;;7.43;4.40;;;;;;;4.28;85.01;99956.66;2677040;26;20126;-73
2024/04/18 00:18:42;;;;;;;6.07;4.65;;;;;;;4.27;85.52;99958.38;2664581;27;20079;-73
2024/04/18 00:19:56;;;;;;;8.30;5.72;;;;;;;4.28;85.55;99965.25;2671108;26;20012;-73
2024/04/18 00:21:09;;;;;;;5.20;4.70;;;;;;;4.29;85.06;99960.97;2657566;27;20400;-73
2024/04/18 00:22:22;;;;;;;5.30;4.80;;;;;;;4.30;85.52;99960.13;2671594;26;20041;-73
2024/04/18 00:23:36;;;;;;;6.05;4.38;;;;;;;4.31;85.24;99964.41;2670958;27;20087;-73
2024/04/18 00:24:49;;;;;;;5.55;5.00;;;;;;;4.32;85.53;99968.75;2670960;26;20012;-73
2024/04/18 00:26:02;;;;;;;6.07;4.57;;;;;;;4.32;85.42;99959.28;2670472;26;20005;-73
2024/04/18 00:27:15;;;;;;;9.77;5.07;;;;;;;4.35;85.16;99963.59;2670824;26;20118;-73
2024/04/18 00:28:29;;;;;;;8.73;5.18;;;;;;;4.34;85.17;99965.31;2670887;26;20015;-73
2024/04/18 00:29:43;;;;;;;7.30;4.78;;;;;;;4.35;85.60;99966.19;2671730;26;20019;-73
2024/04/18 00:30:56;;;;;;;6.97;5.43;;;;;;;4.35;85.30;99964.44;2670788;27;20071;-73
2024/04/18 00:32:10;;;;;;;7.15;5.45;;;;;;;4.36;85.28;99958.44;2673843;26;20401;-73
2024/04/18 00:33:23;;;;;;;6.55;5.57;;;;;;;4.38;85.25;99963.59;2687931;26;20001;-73
2024/04/18 00:34:36;;;;;;;10.63;6.00;;;;;;;4.42;85.11;99967.09;2676589;26;20135;-73
2024/04/18 00:35:50;;;;;;;6.00;4.85;;;;;;;4.41;85.06;99960.16;2688631;26;20142;-73
2024/04/18 00:37:03;;;;;;;5.88;5.28;;;;;;;4.42;85.50;99961.91;2673765;26;20001;-73
2024/04/18 00:38:17;;;;;;;13.05;5.90;;;;;;;4.46;84.94;99963.66;2674452;26;20087;-73
2024/04/18 00:39:30;;;;;;;5.40;4.68;;;;;;;4.45;85.12;99960.19;2671163;26;20017;-73
2024/04/18 00:40:43;;;;;;;9.98;5.55;;;;;;;4.47;85.51;99958.50;2671304;26;20017;-73
2024/04/18 00:41:57;;;;;;;5.22;4.68;;;;;;;4.49;85.33;99955.91;2670539;26;20474;-73
2024/04/18 00:43:10;;;;;;;7.22;4.95;;;;;;;4.49;85.41;99958.47;2659425;27;20002;-73
2024/04/18 00:44:24;;;;;;;6.28;4.97;;;;;;;4.49;85.25;99954.22;2664724;26;20002;-73
2024/04/18 00:45:37;;;;;;;5.15;4.65;;;;;;;4.52;85.83;99964.56;2664015;26;20032;-73
2024/04/18 00:46:50;;;;;;;7.15;4.88;;;;;;;4.50;85.32;99966.25;2670683;26;20009;-73
2024/04/18 00:48:04;;;;;;;9.43;5.40;;;;;;;4.49;85.57;99964.53;2658657;26;20021;-73
2024/04/18 00:49:17;;;;;;;6.95;5.65;;;;;;;4.49;85.54;99963.66;2646561;27;20110;-73
2024/04/18 00:50:30;;;;;;;6.88;4.95;;;;;;;4.51;85.20;99962.81;2670996;27;20036;-73
2024/04/18 00:51:44;;;;;;;8.73;6.25;;;;;;;4.50;85.58;99961.09;2671512;26;20001;-73
2024/04/18 00:52:59;;;;;;;6.63;4.95;;;;;;;4.50;85.35;99960.22;2669998;26;20002;-73
2024/04/18 00:54:12;;;;;;;5.75;5.15;;;;;;;4.49;85.41;99963.66;2645970;26;20152;-73
2024/04/18 00:55:29;;;;;;;9.98;5.72;;;;;;;4.50;85.08;99960.22;2665790;26;20048;-73
2024/04/18 00:56:44;;;;;;;6.90;4.68;;;;;;;4.51;85.61;99967.97;2669189;26;20068;-73
2024/04/18 00:57:57;;;;;;;7.13;6.45;;;;;;;4.48;85.28;99969.69;2659432;27;20020;-73
2024/04/18 00:59:12;;;;;;;7.75;6.57;;;;;;;4.45;85.34;99965.38;2659019;26;20005;-73
2024/04/18 01:00:26;;;;;;;7.93;5.75;;;;;;;4.45;85.45;99964.50;2670373;26;20013;-73
2024/04/18 01:01:39;;;;;;;6.32;5.72;;;;;;;4.44;85.57;99970.50;2671615;26;20056;-73
2024/04/18 01:02:52;;;;;;;6.75;6.03;;;;;;;4.44;85.45;99961.06;2670141;26;20005;-73
2024/04/18 01:04:06;;;;;;;6.28;5.50;;;;;;;4.47;85.36;99965.38;2670171;26;20080;-73
2024/04/18 01:05:20;;;;;;;6.68;6.00;;;;;;;4.48;85.29;99961.94;2671498;26;20012;-73
2024/04/18 01:06:33;;;;;;;8.43;7.03;;;;;;;4.49;85.04;99963.66;2670499;26;20013;-73
2024/04/18 01:07:46;;;;;;;10.70;7.93;;;;;;;4.49;85.04;99963.66;2674994;26;20438;-73
2024/04/18 01:09:03;;;;;;;6.97;5.60;;;;;;;4.48;85.12;99967.09;2669512;26;20024;-73
2024/04/18 01:10:16;;;;;;;8.25;7.45;;;;;;;4.46;85.34;99961.06;2671132;26;20363;-73
2024/04/18 01:11:30;;;;;;;12.88;7.25;;;;;;;4.46;85.25;99959.34;2671656;26;20061;-73
2024/04/18 01:12:43;;;;;;;8.63;6.13;;;;;;;4.45;85.05;99969.69;2671190;26;20037;-73
2024/04/18 01:13:56;;;;;;;7.43;6.75;;;;;;;4.43;85.14;99964.50;2671228;26;20002;-73
2024/04/18 01:15:09;;;;;;;9.63;6.68;;;;;;;4.45;85.24;99951.59;2670316;26;20448;-73
2024/04/18 01:16:23;;;;;;;7.20;6.50;;;;;;;4.45;85.01;99960.19;2670799;26;20461;-73
2024/04/18 01:17:37;;;;;;;8.55;6.85;;;;;;;4.46;85.22;99958.47;2671214;26;20294;-73
2024/04/18 01:18:50;;;;;;;8.82;7.88;;;;;;;4.48;85.35;99956.78;2671334;26;20005;-73
2024/04/18 01:20:04;;;;;;;8.75;6.72;;;;;;;4.47;85.00;99960.22;2670466;26;20016;-73
2024/04/18 01:21:17;;;;;;;7.80;6.78;;;;;;;4.46;85.51;99963.66;2670034;26;20013;-73
2024/04/18 01:22:31;;;;;;;7.40;6.70;;;;;;;4.44;85.38;99957.59;2670474;27;20002;-73
2024/04/18 01:23:44;;;;;;;8.07;6.85;;;;;;;4.42;85.39;99956.75;2670356;26;19997;-73
2024/04/18 01:24:57;;;;;;;8.02;7.28;;;;;;;4.41;85.47;99970.50;2670081;26;20443;-73
2024/04/18 01:26:11;;;;;;;9.32;7.20;;;;;;;4.37;85.06;99964.47;2670201;26;20346;-73
2024/04/18 01:27:24;;;;;;;8.88;7.65;;;;;;;4.33;84.96;99958.41;2658842;26;20012;-73
2024/04/18 01:28:38;;;;;;;11.13;8.38;;;;;;;4.33;85.04;99968.72;2669620;26;19998;-73
2024/04/18 01:29:51;;;;;;;10.50;7.03;;;;;;;4.32;85.08;99967.03;2671330;26;20013;-73
2024/04/18 01:31:04;;;;;;;12.43;7.30;;;;;;;4.31;85.03;99965.31;2670265;26;20832;-73
2024/04/18 01:32:17;;;;;;;10.98;8.10;;;;;;;4.31;85.07;99964.41;2652144;27;20010;-73
2024/04/18 01:33:31;;;;;;;8.23;7.40;;;;;;;4.29;85.49;99963.56;2659167;27;20465;-73
2024/04/18 01:34:45;;;;;;;9.52;8.15;;;;;;;4.29;85.18;99961.84;2670094;26;19997;-73
2024/04/18 01:35:58;;;;;;;10.45;8.48;;;;;;;4.30;85.36;99962.69;2675392;26;20001;-73
2024/04/18 01:37:12;;;;;;;8.20;6.60;;;;;;;4.30;85.26;99967.88;2681384;26;20012;-73
2024/04/18 01:38:25;;;;;;;9.20;7.55;;;;;;;4.31;86.33;99967.88;2669702;26;20038;-73
2024/04/18 01:39:38;;;;;;;10.45;8.77;;;;;;;4.34;85.95;99967.03;2670402;26;20010;-73
2024/04/18 01:40:52;;;;;;;8.50;7.60;;;;;;;4.35;85.62;99964.44;2671132;26;20054;-73
2024/04/18 01:42:05;;;;;;;10.98;8.13;;;;;;;4.36;85.51;99968.78;2671117;26;20355;-73
2024/04/18 01:43:19;;;;;;;13.73;8.23;;;;;;;4.38;85.94;99973.94;2671146;26;20027;-73
2024/04/18 01:44:32;;;;;;;9.52;8.07;;;;;;;4.37;85.75;99967.91;2670953;26;19994;-73
2024/04/18 01:45:45;;;;;;;10.48;8.07;;;;;;;4.35;86.06;99972.19;2675248;26;20017;-73
2024/04/18 01:46:58;;;;;;;10.00;8.50;;;;;;;4.33;85.96;99970.47;2671321;26;20006;-73
2024/04/18 01:48:11;;;;;;;15.30;8.10;;;;;;;4.32;85.55;99968.75;2670440;26;20611;-74
2024/04/18 01:49:25;;;;;;;9.45;8.43;;;;;;;4.31;86.23;99967.00;2670074;26;20464;-73
2024/04/18 01:50:38;;;;;;;10.20;8.32;;;;;;;4.28;85.78;99974.72;2671024;26;20013;-73
2024/04/18 01:51:51;;;;;;;9.43;8.18;;;;;;;4.27;86.25;99976.47;2669953;26;20704;-73
2024/04/18 01:53:04;;;;;;;12.95;8.65;;;;;;;4.24;86.07;99966.13;2675218;26;20482;-73
2024/04/18 01:54:18;;;;;;;10.77;8.48;;;;;;;4.26;86.43;99967.00;2681755;26;20002;-73
2024/04/18 01:55:31;;;;;;;9.95;8.32;;;;;;;4.25;86.22;99970.41;2678371;26;20335;-73
2024/04/18 01:56:44;;;;;;;14.85;9.40;;;;;;;4.28;86.09;99972.16;2669920;26;20339;-73
2024/04/18 01:57:57;;;;;;;9.50;8.32;;;;;;;4.29;86.42;99966.16;2670707;26;20442;-73
2024/04/18 01:59:11;;;;;;;15.93;10.43;;;;;;;4.33;86.42;99973.03;2670632;26;20068;-73
2024/04/18 02:00:24;;;;;;;14.30;9.20;;;;;;;4.34;86.01;99978.22;2670603;26;19998;-73
2024/04/18 02:01:37;;;;;;;14.25;9.02;;;;;;;4.34;86.26;99979.97;2671055;26;20056;-73
2024/04/18 02:02:50;;;;;;;15.00;10.13;;;;;;;4.34;86.48;99967.91;2670982;26;20016;-73
2024/04/18 02:04:04;;;;;;;10.30;8.90;;;;;;;4.35;86.41;99976.50;2669334;26;20378;-73
2024/04/18 02:05:17;;;;;;;17.13;10.23;;;;;;;4.35;86.09;99976.50;2670195;26;20451;-73
2024/04/18 02:06:30;;;;;;;13.00;10.15;;;;;;;4.34;86.74;99974.78;2670985;26;20079;-73
2024/04/18 02:07:43;;;;;;;14.63;9.32;;;;;;;4.35;86.75;99982.53;2679506;26;20025;-73
2024/04/18 02:08:57;;;;;;;13.95;9.23;;;;;;;4.36;86.32;99978.22;2675412;26;20012;-73
2024/04/18 02:10:10;;;;;;;10.90;9.77;;;;;;;4.35;86.41;99974.78;2671563;26;20001;-73
2024/04/18 02:11:23;;;;;;;16.55;10.02;;;;;;;4.37;86.45;99979.97;2671201;26;20100;-73
2024/04/18 02:12:36;;;;;;;10.25;8.65;;;;;;;4.38;86.55;99984.28;2669807;26;19994;-73
2024/04/18 02:13:49;;;;;;;15.10;8.98;;;;;;;4.40;86.94;99979.13;2670777;26;20422;-73
2024/04/18 02:15:03;;;;;;;12.20;10.90;;;;;;;4.40;86.45;99985.16;2670873;26;20002;-73
2024/04/18 02:16:16;;;;;;;13.73;10.25;;;;;;;4.40;86.88;99984.28;2670383;26;20012;-73
2024/04/18 02:17:29;;;;;;;10.82;9.55;;;;;;;4.40;86.37;99982.56;2669767;26;19998;-73
2024/04/18 02:18:43;;;;;;;14.07;10.93;;;;;;;4.38;86.81;99981.69;2658391;27;20001;-73
2024/04/18 02:19:56;;;;;;;12.82;9.88;;;;;;;4.38;87.04;99979.09;2662818;26;20080;-73
2024/04/18 02:21:09;;;;;;;14.20;9.70;;;;;;;4.36;86.93;99981.69;2682055;26;20002;-73
2024/04/18 02:22:22;;;;;;;11.93;10.05;;;;;;;4.37;86.43;99986.00;2671677;27;20017;-73
2024/04/18 02:23:36;;;;;;;11.48;10.15;;;;;;;4.36;86.96;99983.38;2672595;26;20002;-73
2024/04/18 02:25:09;;;;;;;12.90;9.93;;;;;;;4.36;87.02;99986.88;2672561;26;20067;-73
2024/04/18 02:26:22;;;;;;;17.58;10.32;;;;;;;4.35;86.75;99982.53;2664331;26;20009;-73
2024/04/18 02:27:36;;;;;;;11.77;8.95;;;;;;;4.35;86.65;99982.53;2682463;26;20421;-73
2024/04/18 02:28:49;;;;;;;12.52;10.00;;;;;;;4.35;86.77;99985.13;2672383;26;20009;-73
2024/04/18 02:30:05;;;;;;;11.45;9.70;;;;;;;4.34;86.48;99985.97;2673231;26;20296;-73
2024/04/18 02:31:18;;;;;;;14.73;10.73;;;;;;;4.33;86.99;99986.81;2672682;26;20005;-73
2024/04/18 02:32:31;;;;;;;11.57;9.80;;;;;;;4.34;86.63;99982.53;2676394;26;20060;-73
2024/04/18 02:33:44;;;;;;;14.90;12.38;;;;;;;4.36;87.13;99989.44;2679781;26;20040;-73
2024/04/18 02:34:58;;;;;;;17.30;11.93;;;;;;;4.37;87.08;99983.41;2679984;26;20049;-73
2024/04/18 02:36:12;;;;;;;11.52;9.82;;;;;;;4.38;87.07;99976.53;2679365;26;20013;-73
2024/04/18 02:37:25;;;;;;;12.60;10.45;;;;;;;4.40;86.75;99985.16;2680117;26;20005;-73
2024/04/18 02:38:38;;;;;;;15.63;10.68;;;;;;;4.39;86.67;99975.69;2675415;26;20020;-74
2024/04/18 02:39:51;;;;;;;12.38;10.80;;;;;;;4.41;87.24;99983.41;2673344;27;20041;-73
2024/04/18 02:41:05;;;;;;;15.93;11.18;;;;;;;4.44;87.30;99983.44;2673413;26;20001;-73
2024/04/18 02:42:19;;;;;;;13.45;10.10;;;;;;;4.43;86.68;99982.56;2673638;26;19997;-73
2024/04/18 02:43:32;;;;;;;13.55;11.20;;;;;;;4.44;87.18;99986.03;2673966;26;20020;-73
2024/04/18 02:44:45;;;;;;;13.90;10.82;;;;;;;4.43;86.87;99981.72;2673587;26;20016;-73
2024/04/18 02:45:59;;;;;;;14.23;11.73;;;;;;;4.41;86.72;99984.28;2672289;26;20016;-73
2024/04/18 02:47:12;;;;;;;13.35;9.25;;;;;;;4.40;87.20;99982.56;2673465;26;20005;-73
2024/04/18 02:48:26;;;;;;;15.50;9.70;;;;;;;4.41;86.78;99980.84;2673849;26;20053;-73
2024/04/18 02:49:39;;;;;;;14.40;12.10;;;;;;;4.41;87.07;99984.28;2645181;27;20021;-73
2024/04/18 02:50:52;;;;;;;15.63;10.68;;;;;;;4.38;87.28;99987.72;2660937;27;20029;-73
2024/04/18 02:52:05;;;;;;;14.40;10.80;;;;;;;4.36;86.75;99984.28;2670904;26;20006;-73
2024/04/18 02:53:19;;;;;;;15.25;11.88;;;;;;;4.34;86.65;99980.81;2676516;27;20021;-73
2024/04/18 02:54:32;;;;;;;13.68;10.77;;;;;;;4.33;86.82;99984.22;2672934;26;20017;-74
2024/04/18 02:55:45;;;;;;;14.52;10.70;;;;;;;4.34;87.39;99988.56;2672363;26;20462;-73
2024/04/18 02:56:59;;;;;;;15.95;12.57;;;;;;;4.35;86.75;99987.69;2670752;26;19998;-74
2024/04/18 02:58:12;;;;;;;14.35;10.80;;;;;;;4.36;86.99;99989.44;2671124;26;20002;-73
2024/04/18 02:59:25;;;;;;;17.55;11.90;;;;;;;4.37;87.52;99990.31;2670826;26;20327;-73
2024/04/18 03:00:38;;;;;;;13.80;11.35;;;;;;;4.35;87.00;99985.13;2670244;26;20002;-73
2024/04/18 03:01:52;;;;;;;15.23;11.27;;;;;;;4.37;86.93;99995.47;2672413;26;20005;-73
2024/04/18 03:03:05;;;;;;;12.00;10.80;;;;;;;4.35;87.04;99984.25;2670822;26;20075;-73
2024/04/18 03:04:18;;;;;;;15.13;11.02;;;;;;;4.34;87.41;99993.72;2671011;26;20092;-73
2024/04/18 03:05:31;;;;;;;12.68;10.73;;;;;;;4.33;87.33;99991.97;2671216;26;20028;-73
2024/04/18 03:06:45;;;;;;;13.02;11.63;;;;;;;4.31;87.20;99987.66;2659898;27;20071;-73
2024/04/18 03:07:58;;;;;;;14.18;11.38;;;;;;;4.29;86.86;99998.00;2664686;26;20077;-73
2024/04/18 03:09:12;;;;;;;13.40;11.55;;;;;;;4.28;87.20;99988.50;2654395;27;20105;-73
2024/04/18 03:10:26;;;;;;;13.45;10.90;;;;;;;4.28;86.88;99990.22;2635751;27;20463;-73
2024/04/18 03:11:39;;;;;;;14.40;10.98;;;;;;;4.24;86.86;99991.94;2656838;26;20005;-73
2024/04/18 03:12:53;;;;;;;13.30;11.07;;;;;;;4.24;87.05;99993.66;2677261;26;20084;-73
2024/04/18 03:14:06;;;;;;;15.10;11.70;;;;;;;4.23;87.11;99989.34;2672235;26;20002;-73
2024/04/18 03:15:22;;;;;;;19.88;11.02;;;;;;;4.23;87.50;99991.91;2672102;26;20017;-73
2024/04/18 03:16:36;;;;;;;13.05;11.75;;;;;;;4.20;86.85;99992.75;2670653;26;20032;-73
2024/04/18 03:17:53;;;;;;;12.95;10.68;;;;;;;4.20;87.22;99992.75;2659489;27;20005;-73
2024/04/18 03:19:12;;;;;;;13.63;11.80;;;;;;;4.23;87.04;100003.13;2674204;26;20000;-73
2024/04/18 03:20:25;;;;;;;17.88;12.77;;;;;;;4.23;87.54;99997.09;2670460;26;20034;-73
2024/04/18 03:21:39;;;;;;;12.23;10.80;;;;;;;4.25;87.56;100006.56;2671971;26;20005;-73
2024/04/18 03:22:52;;;;;;;13.65;11.45;;;;;;;4.26;87.77;99991.94;2672387;26;20016;-73
2024/04/18 03:24:22;;;;;;;17.05;10.88;;;;;;;4.25;87.62;99995.38;2671772;26;20012;-73
2024/04/18 03:25:35;;;;;;;13.80;10.65;;;;;;;4.26;87.60;100000.56;2670788;26;20006;-73
2024/04/18 03:26:50;;;;;;;18.95;11.57;;;;;;;4.27;87.24;100004.00;2676955;26;20365;-73
2024/04/18 03:28:03;;;;;;;16.23;11.93;;;;;;;4.27;87.45;99996.25;2681588;26;20005;-73
2024/04/18 03:29:16;;;;;;;12.93;11.13;;;;;;;4.24;87.68;100004.00;2670670;26;20001;-73
2024/04/18 03:30:30;;;;;;;12.07;9.25;;;;;;;4.26;87.41;100008.31;2659711;26;20021;-73
2024/04/18 03:31:47;;;;;;;11.52;10.32;;;;;;;4.22;87.54;100011.72;2664684;26;20090;-73
2024/04/18 03:33:00;;;;;;;12.15;9.27;;;;;;;4.21;87.91;100004.84;2665627;26;20042;-73
2024/04/18 03:34:13;;;;;;;11.43;9.38;;;;;;;4.20;87.62;100004.81;2680948;26;20356;-73
2024/04/18 03:35:26;;;;;;;14.20;9.65;;;;;;;4.22;87.34;100010.88;2653880;27;20087;-73
2024/04/18 03:36:49;;;;;;;13.07;9.52;;;;;;;4.22;87.65;100011.72;2648191;27;20001;-73
2024/04/18 03:38:02;;;;;;;9.02;7.05;;;;;;;4.18;87.49;100009.09;2661713;27;20012;-73
2024/04/18 03:39:15;;;;;;;10.20;8.57;;;;;;;4.15;87.68;100010.81;2670755;26;20001;-73
2024/04/18 03:40:28;;;;;;;11.10;8.95;;;;;;;4.16;87.44;100014.28;2670806;26;20002;-73
2024/04/18 03:41:42;;;;;;;10.48;8.82;;;;;;;4.18;87.79;100014.28;2671881;26;20127;-73
2024/04/18 03:42:55;;;;;;;13.25;9.20;;;;;;;4.15;87.69;100015.13;2671040;26;20446;-73
2024/04/18 03:44:08;;;;;;;6.80;5.72;;;;;;;4.12;87.93;100015.94;2670778;26;20458;-73
2024/04/18 03:45:21;;;;;;;7.68;6.50;;;;;;;4.11;87.79;100013.38;2671922;26;20001;-73
2024/04/18 03:46:38;;;;;;;7.43;6.40;;;;;;;4.08;87.47;100013.34;2673532;26;20021;-73
2024/04/18 03:47:51;;;;;;;7.32;5.85;;;;;;;4.06;87.59;100015.06;2670577;26;20084;-73
2024/04/18 03:49:04;;;;;;;6.80;5.03;;;;;;;4.05;87.59;100018.47;2670168;26;20006;-73
2024/04/18 03:50:18;;;;;;;5.28;4.72;;;;;;;4.02;87.71;100014.16;2671529;26;20045;-73
2024/04/18 03:51:31;;;;;;;6.05;5.30;;;;;;;4.03;87.98;100021.06;2653676;27;20010;-73
2024/04/18 03:52:44;;;;;;;7.90;5.78;;;;;;;4.03;87.79;100027.94;2656567;26;20655;-73
2024/04/18 03:53:58;;;;;;;7.05;5.60;;;;;;;4.02;87.48;100024.47;2665421;27;20350;-73
2024/04/18 03:55:11;;;;;;;6.90;6.07;;;;;;;3.97;87.84;100028.75;2670940;26;20005;-73
2024/04/18 03:56:24;;;;;;;6.45;5.63;;;;;;;3.94;87.50;100027.00;2652090;26;20753;-73
2024/04/18 03:57:37;;;;;;;7.57;6.10;;;;;;;3.96;87.92;100028.75;2659634;27;20744;-73
2024/04/18 03:58:52;;;;;;;6.53;5.65;;;;;;;3.98;87.44;100032.22;2670618;26;20001;-73
2024/04/18 04:00:07;;;;;;;11.32;5.95;;;;;;;4.00;87.64;100036.53;2672090;26;20001;-73
2024/04/18 04:01:21;;;;;;;6.57;5.75;;;;;;;4.00;87.68;100025.31;2671729;26;20029;-73
2024/04/18 04:02:34;;;;;;;6.80;6.10;;;;;;;4.02;87.73;100032.22;2671176;26;20010;-73
2024/04/18 04:03:47;;;;;;;7.45;5.97;;;;;;;4.01;88.03;100029.66;2671716;26;20017;-73
2024/04/18 04:05:00;;;;;;;6.10;5.50;;;;;;;4.00;87.98;100036.53;2671229;26;20529;-73
2024/04/18 04:06:15;;;;;;;6.30;5.70;;;;;;;4.00;88.14;100035.66;2671825;26;20414;-73
2024/04/18 04:07:28;;;;;;;7.05;6.28;;;;;;;3.99;87.65;100045.13;2675462;26;20048;-73
2024/04/18 04:08:41;;;;;;;8.32;5.40;;;;;;;4.00;87.92;100038.22;2671379;26;20002;-73
2024/04/18 04:09:54;;;;;;;5.65;5.00;;;;;;;4.02;87.52;100037.38;2671587;26;20040;-73
2024/04/18 04:11:08;;;;;;;6.30;5.07;;;;;;;4.03;87.77;100040.88;2671773;26;20001;-73
2024/04/18 04:12:21;;;;;;;8.57;5.70;;;;;;;4.04;87.53;100045.16;2671313;26;20028;-73
2024/04/18 04:13:34;;;;;;;6.68;5.40;;;;;;;4.04;87.82;100045.16;2670780;27;20320;-73
2024/04/18 04:14:47;;;;;;;4.78;4.25;;;;;;;4.03;87.92;100044.31;2671739;26;20020;-73
2024/04/18 04:16:01;;;;;;;8.10;6.43;;;;;;;4.00;87.95;100044.28;2670534;26;20013;-73
2024/04/18 04:17:14;;;;;;;7.32;4.78;;;;;;;4.01;87.87;100045.16;2671491;26;20002;-73
2024/04/18 04:18:27;;;;;;;7.38;6.00;;;;;;;4.01;87.81;100045.16;2670170;27;20343;-73
2024/04/18 04:19:40;;;;;;;9.52;6.43;;;;;;;4.02;87.40;100046.88;2670888;26;20446;-73
2024/04/18 04:20:53;;;;;;;6.78;6.07;;;;;;;3.99;87.48;100046.84;2671570;26;20007;-73
2024/04/18 04:22:07;;;;;;;6.68;4.95;;;;;;;3.98;88.10;100047.72;2671935;26;20009;-73
2024/04/18 04:23:20;;;;;;;6.43;5.78;;;;;;;3.99;87.83;100054.59;2671605;26;20018;-72
2024/04/18 04:24:33;;;;;;;6.78;5.00;;;;;;;3.98;87.62;100047.72;2670267;26;20016;-72
2024/04/18 04:25:46;;;;;;;6.57;5.72;;;;;;;4.00;88.03;100057.19;2670819;27;20413;-72
2024/04/18 04:27:00;;;;;;;8.60;5.30;;;;;;;3.98;88.14;100053.72;2671860;26;20450;-72
2024/04/18 04:28:13;;;;;;;9.07;5.63;;;;;;;3.98;87.75;100061.47;2671056;26;20435;-72
2024/04/18 04:29:26;;;;;;;5.55;5.00;;;;;;;3.96;87.86;100054.56;2670487;26;20501;-72
2024/04/18 04:30:39;;;;;;;6.60;5.68;;;;;;;3.93;87.79;100056.25;2671088;27;20422;-72
2024/04/18 04:31:52;;;;;;;6.05;5.43;;;;;;;3.92;87.49;100059.72;2671406;26;20390;-72
2024/04/18 04:33:06;;;;;;;7.25;5.20;;;;;;;3.92;87.74;100063.97;2670419;26;20432;-72
2024/04/18 04:34:19;;;;;;;8.15;6.22;;;;;;;3.90;87.67;100064.00;2671056;26;20346;-72
2024/04/18 04:35:32;;;;;;;7.28;6.47;;;;;;;3.90;87.91;100064.00;2670750;27;20445;-72
2024/04/18 04:36:45;;;;;;;9.43;6.25;;;;;;;3.91;87.39;100070.00;2670947;26;20001;-72
2024/04/18 04:37:59;;;;;;;9.32;6.40;;;;;;;3.89;87.40;100069.97;2670285;26;20002;-72
2024/04/18 04:39:12;;;;;;;7.32;6.43;;;;;;;3.89;88.03;100066.53;2676058;26;20005;-72
2024/04/18 04:40:25;;;;;;;7.43;6.57;;;;;;;3.88;87.81;100073.44;2669874;26;20041;-72
2024/04/18 04:41:38;;;;;;;8.95;6.40;;;;;;;3.89;88.13;100076.88;2665995;26;20087;-72
2024/04/18 04:42:52;;;;;;;6.82;5.97;;;;;;;3.90;87.86;100074.31;2670801;27;20009;-72
2024/04/18 04:44:05;;;;;;;7.85;6.47;;;;;;;3.88;87.88;100080.31;2670243;26;20001;-72
2024/04/18 04:45:18;;;;;;;15.75;8.25;;;;;;;3.87;87.59;100074.28;2671434;26;20001;-72
2024/04/18 04:46:31;;;;;;;10.05;7.13;;;;;;;3.87;88.22;100082.03;2671654;26;20005;-72
2024/04/18 04:47:44;;;;;;;9.05;7.25;;;;;;;3.87;87.69;100086.31;2671147;26;20021;-72
2024/04/18 04:48:58;;;;;;;8.90;7.10;;;;;;;3.85;87.81;100088.91;2670606;26;20012;-72
2024/04/18 04:50:11;;;;;;;8.77;6.85;;;;;;;3.87;87.87;100087.19;2669229;26;20020;-72
2024/04/18 04:51:24;;;;;;;8.88;7.38;;;;;;;3.89;88.27;100092.34;2670757;26;20017;-72
2024/04/18 04:52:37;;;;;;;8.02;6.78;;;;;;;3.89;88.19;100092.34;2671307;26;20776;-72
2024/04/18 04:53:51;;;;;;;10.48;8.00;;;;;;;3.90;87.80;100097.53;2670366;26;20518;-72
2024/04/18 04:55:04;;;;;;;11.02;7.63;;;;;;;3.90;87.94;100097.53;2670575;27;20014;-72
2024/04/18 04:56:17;;;;;;;9.05;7.75;;;;;;;3.93;88.32;100097.56;2670811;26;20002;-72
2024/04/18 04:57:31;;;;;;;7.95;7.15;;;;;;;3.94;88.47;100104.44;2670367;26;20010;-72
2024/04/18 04:58:44;;;;;;;8.25;6.72;;;;;;;3.96;88.08;100101.03;2641878;27;20006;-72
2024/04/18 04:59:57;;;;;;;9.90;7.30;;;;;;;3.97;88.00;100102.75;2658955;26;20017;-72
2024/04/18 05:01:10;;;;;;;8.65;7.45;;;;;;;3.99;88.21;100107.09;2671255;26;20050;-72
2024/04/18 05:02:24;;;;;;;8.27;6.38;;;;;;;4.00;88.50;100102.78;2671102;26;20005;-72
2024/04/18 05:03:37;;;;;;;9.40;8.50;;;;;;;3.99;88.29;100104.50;2670967;26;20005;-72
2024/04/18 05:04:51;;;;;;;8.77;6.78;;;;;;;4.01;87.83;100099.38;2669639;26;20084;-72
2024/04/18 05:06:05;;;;;;;9.95;6.88;;;;;;;3.98;87.95;100101.94;2659523;27;20033;-72
2024/04/18 05:07:18;;;;;;;9.82;6.80;;;;;;;3.97;88.14;100111.38;2667188;26;20596;-72
2024/04/18 05:08:31;;;;;;;8.35;5.82;;;;;;;3.92;87.64;100108.75;2670525;26;20435;-71
2024/04/18 05:09:45;;;;;;;9.63;6.35;;;;;;;3.92;88.24;100113.03;2670646;26;20414;-71
2024/04/18 05:10:58;;;;;;;9.30;7.35;;;;;;;3.87;88.14;100118.19;2671070;26;20001;-72
2024/04/18 05:12:11;;;;;;;9.00;6.78;;;;;;;3.87;88.09;100112.13;2670782;26;20020;-72
2024/04/18 05:13:24;;;;;;;8.82;7.93;;;;;;;3.87;88.11;100115.59;2671000;26;20017;-72
2024/04/18 05:14:37;;;;;;;11.65;7.53;;;;;;;3.85;87.61;100119.00;2671315;26;20005;-72
2024/04/18 05:15:51;;;;;;;9.68;6.68;;;;;;;3.84;88.23;100125.88;2680477;26;20482;-72
2024/04/18 05:17:05;;;;;;;9.27;8.00;;;;;;;3.84;88.36;100125.00;2675868;26;20021;-72
2024/04/18 05:18:18;;;;;;;9.93;6.90;;;;;;;3.83;87.69;100124.16;2670516;26;20061;-72
2024/04/18 05:19:31;;;;;;;11.25;6.70;;;;;;;3.83;88.26;100131.88;2671220;26;20550;-72
2024/04/18 05:20:45;;;;;;;10.38;7.07;;;;;;;3.80;88.13;100131.88;2671033;26;20001;-72
2024/04/18 05:21:58;;;;;;;12.00;7.85;;;;;;;3.78;87.77;100124.94;2671221;26;20005;-72
2024/04/18 05:23:11;;;;;;;8.90;6.43;;;;;;;3.77;87.58;100129.25;2669961;26;20001;-72
2024/04/18 05:24:25;;;;;;;8.63;6.50;;;;;;;3.76;88.24;100127.50;2669941;26;20108;-72
2024/04/18 05:25:38;;;;;;;7.63;6.30;;;;;;;3.75;88.21;100127.50;2670020;26;20450;-72
2024/04/18 05:26:51;;;;;;;9.00;7.28;;;;;;;3.78;88.28;100133.56;2669567;26;20470;-72
2024/04/18 05:28:13;;;;;;;7.68;6.85;;;;;;;3.80;87.97;100144.78;2669742;26;20013;-72
2024/04/18 05:31:01;;;;;;;8.50;6.30;;;;;;;3.67;87.64;100142.91;2670950;26;20075;-72
2024/04/18 05:32:14;;;;;;;6.80;6.10;;;;;;;3.64;87.67;100145.44;2670728;26;20046;-72
2024/04/18 05:33:28;;;;;;;8.77;6.35;;;;;;;3.63;87.60;100143.72;2671412;26;19994;-71
2024/04/18 05:34:41;;;;;;;7.80;5.90;;;;;;;3.64;87.81;100145.44;2669958;26;20379;-71
2024/04/18 05:35:55;;;;;;;8.93;5.65;;;;;;;3.62;87.55;100152.31;2670700;27;19993;-71
2024/04/18 05:37:08;;;;;;;7.70;6.47;;;;;;;3.60;87.95;100159.16;2669180;26;20025;-71
2024/04/18 05:38:21;;;;;;;7.40;5.85;;;;;;;3.59;88.22;100162.56;2669934;26;19998;-71
2024/04/18 05:39:35;;;;;;;12.90;5.75;;;;;;;3.59;87.95;100160.00;2670957;26;20092;-71
2024/04/18 05:40:49;;;;;;;9.77;7.25;;;;;;;3.57;88.25;100156.56;2670733;26;19998;-71
2024/04/18 05:42:02;;;;;;;9.93;7.80;;;;;;;3.56;87.69;100163.41;2669710;27;20025;-71
2024/04/18 05:43:15;;;;;;;9.52;7.65;;;;;;;3.58;88.10;100164.28;2670209;26;20009;-71
2024/04/18 05:44:29;;;;;;;13.30;7.13;;;;;;;3.60;88.13;100162.59;2670440;26;20013;-71
2024/04/18 05:45:44;;;;;;;11.30;8.20;;;;;;;3.63;87.86;100166.94;2670848;26;20009;-72
2024/04/18 05:46:57;;;;;;;11.43;8.35;;;;;;;3.64;87.91;100168.66;2670263;26;19997;-72
2024/04/18 05:48:10;;;;;;;15.35;7.78;;;;;;;3.64;88.12;100169.53;2669469;26;20001;-72